Brazos — V7UU4 — position and weather

sailwx.info

Track history (hours):
 
Tides and Currents Weather Stations Pressure Air Temp Water Temp Dewpoint Dewpoint Depression Visibility Wind Speed Wind Dir Waves Ship Positions

Brazos

Last reported at 2018-Jun-25 00:29 UTC. Time now 2018-Jun-25 00:27 UTC.
Position N 33°54' W 118°29'.

Length 274 m; draft 17 m.

Type: Tanker. MMSI: 538004031.

Date/timePositionNaut miles runAvg speedWind from/ knotsBaromVisibWave heightAir tempDewpointWater temp
2018-Jun-25 00:29N 33°54' W 118°29'0 0.0
2018-Jun-24 23:08N 33°54' W 118°29'0 0.1
2018-Jun-24 21:14N 33°54' W 118°29'0 0.0
2018-Jun-24 20:56N 33°54' W 118°29'0 0.0
2018-Jun-24 20:26N 33°54' W 118°29'0 0.0
2018-Jun-24 19:59N 33°54' W 118°29'0 0.2
2018-Jun-24 19:20N 33°54' W 118°29'0 0.1
2018-Jun-24 18:50N 33°54' W 118°29'0 0.0
2018-Jun-24 03:35N 33°54' W 118°29'0 0.1
2018-Jun-24 03:05N 33°54' W 118°29'0 0.0
2018-Jun-24 00:58N 33°54' W 118°29'0 0.2
2018-Jun-24 00:27N 33°54' W 118°29'1 2.6
2018-Jun-23 23:59N 33°53' W 118°30'3 6.1
2018-Jun-23 23:31N 33°50' W 118°31'510.8
2018-Jun-23 23:00N 33°45' W 118°32'5 9.9
2018-Jun-23 22:30N 33°42' W 118°27'611.3
2018-Jun-23 22:00N 33°39' W 118°21'510.5
2018-Jun-23 21:30N 33°38' W 118°15'4 8.3
2018-Jun-23 21:00N 33°36' W 118°11'5 9.9
2018-Jun-23 20:30N 33°32' W 118°08'611.2
2018-Jun-23 20:00N 33°26' W 118°06'1211.3
2018-Jun-23 18:57N 33°15' W 118°01'511.4
2018-Jun-23 18:30N 33°11' W 117°59'611.4
2018-Jun-23 18:01N 33°05' W 117°56'713.2
2018-Jun-23 17:30N 32°59' W 117°53'713.6
2018-Jun-23 17:00N 32°54' W 117°48'611.2
2018-Jun-23 16:30N 32°49' W 117°45'2 3.2
2018-Jun-23 16:00N 32°47' W 117°44'3 6.4
2018-Jun-23 15:29N 32°44' W 117°42'612.6
2018-Jun-23 15:00N 32°39' W 117°39'712.6
2018-Jun-23 14:28N 32°33' W 117°36'4 9.7
2018-Jun-23 14:00N 32°28' W 117°36'5 9.4
2018-Jun-23 13:30N 32°24' W 117°36'6 9.4
2018-Jun-23 12:54N 32°18' W 117°35'6811.4
2018-Jun-23 07:00N 31°12' W 117°18'1918.7 300 / 41009.0 2.2 29.024.926.0
2018-Jun-23 06:00N 30°54' W 117°12'2810.5 300 / 41009.0 2.2 29.024.926.0
2018-Jun-23 03:21N 30°27' W 117°06'512.6
2018-Jun-23 03:00N 30°22' W 117°05'1212.3
2018-Jun-23 02:00N 30°11' W 117°02'612.2
2018-Jun-23 01:29N 30°04' W 117°00'612.2
2018-Jun-23 00:58N 29°58' W 116°59'14812.3
2018-Jun-22 13:00N 27°36' W 116°12'4212.7 300 / 41009.0 2.2 29.024.926.0
2018-Jun-22 09:39N 26°59' W 115°48'  
Track history (hours):
 
Tides and Currents Weather Stations Pressure Air Temp Water Temp Dewpoint Dewpoint Depression Visibility Wind Speed Wind Dir Waves Ship Positions

Brazos

Last reported at 2018-Jun-25 00:29 UTC. Time now 2018-Jun-25 00:27 UTC.
Position N 33°54' W 118°29'.

Length 274 m; draft 17 m.

Type: Tanker. MMSI: 538004031.

Date/timePositionNaut miles runAvg speedWind from/ knotsBaromVisibWave heightAir tempDewpointWater temp
2018-Jun-25 00:29N 33°54' W 118°29'0 0.0
2018-Jun-24 23:08N 33°54' W 118°29'0 0.1
2018-Jun-24 21:14N 33°54' W 118°29'0 0.0
2018-Jun-24 20:56N 33°54' W 118°29'0 0.0
2018-Jun-24 20:26N 33°54' W 118°29'0 0.0
2018-Jun-24 19:59N 33°54' W 118°29'0 0.2
2018-Jun-24 19:20N 33°54' W 118°29'0 0.1
2018-Jun-24 18:50N 33°54' W 118°29'0 0.0
2018-Jun-24 03:35N 33°54' W 118°29'0 0.1
2018-Jun-24 03:05N 33°54' W 118°29'0 0.0
2018-Jun-24 00:58N 33°54' W 118°29'0 0.2
2018-Jun-24 00:27N 33°54' W 118°29'1 2.6
2018-Jun-23 23:59N 33°53' W 118°30'3 6.1
2018-Jun-23 23:31N 33°50' W 118°31'510.8
2018-Jun-23 23:00N 33°45' W 118°32'5 9.9
2018-Jun-23 22:30N 33°42' W 118°27'611.3
2018-Jun-23 22:00N 33°39' W 118°21'510.5
2018-Jun-23 21:30N 33°38' W 118°15'4 8.3
2018-Jun-23 21:00N 33°36' W 118°11'5 9.9
2018-Jun-23 20:30N 33°32' W 118°08'611.2
2018-Jun-23 20:00N 33°26' W 118°06'1211.3
2018-Jun-23 18:57N 33°15' W 118°01'511.4
2018-Jun-23 18:30N 33°11' W 117°59'611.4
2018-Jun-23 18:01N 33°05' W 117°56'713.2
2018-Jun-23 17:30N 32°59' W 117°53'713.6
2018-Jun-23 17:00N 32°54' W 117°48'611.2
2018-Jun-23 16:30N 32°49' W 117°45'2 3.2
2018-Jun-23 16:00N 32°47' W 117°44'3 6.4
2018-Jun-23 15:29N 32°44' W 117°42'612.6
2018-Jun-23 15:00N 32°39' W 117°39'712.6
2018-Jun-23 14:28N 32°33' W 117°36'4 9.7
2018-Jun-23 14:00N 32°28' W 117°36'5 9.4
2018-Jun-23 13:30N 32°24' W 117°36'6 9.4
2018-Jun-23 12:54N 32°18' W 117°35'6811.4
2018-Jun-23 07:00N 31°12' W 117°18'1918.7 300 / 41009.0 2.2 29.024.926.0
2018-Jun-23 06:00N 30°54' W 117°12'2810.5 300 / 41009.0 2.2 29.024.926.0
2018-Jun-23 03:21N 30°27' W 117°06'512.6
2018-Jun-23 03:00N 30°22' W 117°05'1212.3
2018-Jun-23 02:00N 30°11' W 117°02'612.2
2018-Jun-23 01:29N 30°04' W 117°00'612.2
2018-Jun-23 00:58N 29°58' W 116°59'14812.3
2018-Jun-22 13:00N 27°36' W 116°12'4212.7 300 / 41009.0 2.2 29.024.926.0
2018-Jun-22 09:39N 26°59' W 115°48'  

Dump ship's entire track history